Terminal Aerodrome Forecast
Issued by NWS

Home | Current Version | Previous Version | Text Only | Print | Product List | Glossary On
Versions: 1 2 3 4 5 6 7 8 9 10 11 12 13 14
000
FTAK31 PAJN 271729
TAFAWG
TAF
PAWG 271729Z 2718/2818 12006KT P6SM SCT050 OVC100
     FM272200 14010KT P6SM VCSH BKN035 OVC050
     FM280000 12012G20KT P6SM -RA BKN030 OVC040
     FM280500 12015G22KT 5SM RA BR BKN020 OVC040 WS020/16025KT
     FM281100 12015G25KT 6SM -RA BR BKN020 OVC035 WS020/16025KT
     FM281400 12015G27KT 4SM RA BR BKN018 OVC030 WS020/16025KT
      AMD LTD TO CLD VIS AND WIND 2806/2815=

USA.gov is the U.S. government's official web portal to all federal, state and local government web resources and services.